Overview Statistics Trail Chart Weather Telemetry Raw packets
 

This is the latest recevied weather packets stored in our database for station/object SV9TNF-57. If no packets are shown the sender has not sent any weather packets the latest 10 day(s).

<< 44 45 46 47 48 49 50 >>
Time Temp. Humidity Pressure Rain* Wind** Luminosity Snow
1788362928 32.22° C 34% 994.5 hPa 0 mm 0 m/s - -
1788362627 32.22° C 36% 994.7 hPa 0 mm 0.89 m/s, 288° - -
1788362328 31.11° C 39% 994.7 hPa 0 mm 1.79 m/s, 307° - -
1788362027 31.67° C 38% 994.7 hPa 0 mm 5.81 m/s, 352° - -
1788361727 31.67° C 37% 994.9 hPa 0 mm 4.92 m/s, 2° - -
1788361427 31.67° C 37% 994.7 hPa 0 mm 1.34 m/s, 309° - -
1788361127 31.67° C 37% 994.8 hPa 0 mm 2.24 m/s, 342° - -
1788360827 31.67° C 38% 994.6 hPa 0 mm 2.68 m/s, 315° - -
1788360527 31.67° C 37% 994.5 hPa 0 mm 2.68 m/s, 314° - -
1788360227 31.67° C 38% 994.6 hPa 0 mm 3.58 m/s, 283° - -
1788359927 31.11° C 40% 994.5 hPa 0 mm 0 m/s - -
1788359627 31.11° C 40% 994.3 hPa 0 mm 2.68 m/s, 285° - -
1788359326 31.67° C 40% 994.6 hPa 0 mm 0.89 m/s, 2° - -
1788359026 31.67° C 40% 994.5 hPa 0 mm 4.02 m/s, 5° - -
1788358726 31.67° C 39% 994.5 hPa 0 mm 6.26 m/s, 294° - -
1788358426 32.22° C 37% 994.4 hPa 0 mm 6.71 m/s, 331° - -
1788358126 31.11° C 39% 994.5 hPa 0 mm 0 m/s - -
1788357826 31.67° C 38% 994.4 hPa 0 mm 6.71 m/s, 295° - -
1788357530 31.67° C 39% 994.4 hPa 0 mm 7.6 m/s, 333° - -
1788357226 31.67° C 38% 994.4 hPa 0 mm 7.15 m/s, 306° - -
1788356926 32.22° C 40% 994.3 hPa 0 mm 1.34 m/s, 71° - -
1788356626 31.67° C 42% 994.5 hPa 0 mm 1.79 m/s, 250° - -
1788356325 31.67° C 41% 994.5 hPa 0 mm 7.6 m/s, 337° - -
1788356026 31.67° C 41% 994.5 hPa 0 mm 6.26 m/s, 332° - -
1788355725 32.22° C 40% 994.6 hPa 0 mm 2.24 m/s, 296° - -

* Rain latest hour (hover to see other rain measurements)
** Current wind speed in m/s (hover to see current wind gust speed)